sensor_id;sensor_type;location;lat;lon;timestamp;temperature;humidity
23597;DHT22;40226;50.874;4.394;2023-12-22T00:02:20;10.70;98.80
23597;DHT22;40226;50.874;4.394;2023-12-22T00:04:46;10.70;89.60
23597;DHT22;40226;50.874;4.394;2023-12-22T00:07:11;10.70;82.30
23597;DHT22;40226;50.874;4.394;2023-12-22T00:09:37;10.60;90.10
23597;DHT22;40226;50.874;4.394;2023-12-22T00:12:03;10.60;91.10
23597;DHT22;40226;50.874;4.394;2023-12-22T00:14:29;10.60;96.90
23597;DHT22;40226;50.874;4.394;2023-12-22T00:16:54;10.60;91.50
23597;DHT22;40226;50.874;4.394;2023-12-22T00:19:20;10.60;76.20
23597;DHT22;40226;50.874;4.394;2023-12-22T00:21:46;10.60;75.40
23597;DHT22;40226;50.874;4.394;2023-12-22T00:24:11;10.70;62.50
23597;DHT22;40226;50.874;4.394;2023-12-22T00:26:37;10.70;58.80
23597;DHT22;40226;50.874;4.394;2023-12-22T00:29:02;10.60;73.80
23597;DHT22;40226;50.874;4.394;2023-12-22T00:31:28;10.60;71.10
23597;DHT22;40226;50.874;4.394;2023-12-22T00:33:54;10.60;80.20
23597;DHT22;40226;50.874;4.394;2023-12-22T00:36:19;10.50;81.90
23597;DHT22;40226;50.874;4.394;2023-12-22T00:38:48;10.50;1.00
23597;DHT22;40226;50.874;4.394;2023-12-22T00:41:14;10.30;1.00
23597;DHT22;40226;50.874;4.394;2023-12-22T00:43:39;10.20;23.80
23597;DHT22;40226;50.874;4.394;2023-12-22T00:46:05;10.20;28.10
23597;DHT22;40226;50.874;4.394;2023-12-22T00:48:31;10.20;52.80
23597;DHT22;40226;50.874;4.394;2023-12-22T00:50:56;10.10;73.40
23597;DHT22;40226;50.874;4.394;2023-12-22T00:53:22;9.80;99.90
23597;DHT22;40226;50.874;4.394;2023-12-22T00:55:47;9.80;99.90
23597;DHT22;40226;50.874;4.394;2023-12-22T00:58:13;9.80;99.90
23597;DHT22;40226;50.874;4.394;2023-12-22T01:00:39;9.80;99.90
23597;DHT22;40226;50.874;4.394;2023-12-22T01:03:04;9.80;99.90
23597;DHT22;40226;50.874;4.394;2023-12-22T01:05:30;9.70;99.90
23597;DHT22;40226;50.874;4.394;2023-12-22T01:07:55;9.50;99.90
23597;DHT22;40226;50.874;4.394;2023-12-22T01:10:21;9.70;99.90
23597;DHT22;40226;50.874;4.394;2023-12-22T01:12:47;9.80;99.90
23597;DHT22;40226;50.874;4.394;2023-12-22T01:15:12;9.70;99.90
23597;DHT22;40226;50.874;4.394;2023-12-22T01:17:38;9.70;99.90
23597;DHT22;40226;50.874;4.394;2023-12-22T01:20:04;9.70;99.90
23597;DHT22;40226;50.874;4.394;2023-12-22T01:22:30;9.70;99.90
23597;DHT22;40226;50.874;4.394;2023-12-22T01:24:57;9.80;99.90
23597;DHT22;40226;50.874;4.394;2023-12-22T01:27:23;9.90;99.90
23597;DHT22;40226;50.874;4.394;2023-12-22T01:29:48;9.90;99.90
23597;DHT22;40226;50.874;4.394;2023-12-22T01:32:14;9.90;97.60
23597;DHT22;40226;50.874;4.394;2023-12-22T01:34:40;9.90;95.10
23597;DHT22;40226;50.874;4.394;2023-12-22T01:37:05;10.00;94.10
23597;DHT22;40226;50.874;4.394;2023-12-22T01:39:31;10.00;85.10
23597;DHT22;40226;50.874;4.394;2023-12-22T01:41:57;9.90;90.70
23597;DHT22;40226;50.874;4.394;2023-12-22T01:44:22;10.00;90.10
23597;DHT22;40226;50.874;4.394;2023-12-22T01:46:49;10.10;71.30
23597;DHT22;40226;50.874;4.394;2023-12-22T01:49:15;10.20;61.50
23597;DHT22;40226;50.874;4.394;2023-12-22T01:51:42;10.20;59.70
23597;DHT22;40226;50.874;4.394;2023-12-22T01:54:07;10.00;80.40
23597;DHT22;40226;50.874;4.394;2023-12-22T01:56:34;9.90;94.90
23597;DHT22;40226;50.874;4.394;2023-12-22T01:59:01;9.90;98.90
23597;DHT22;40226;50.874;4.394;2023-12-22T02:01:28;9.80;99.90
23597;DHT22;40226;50.874;4.394;2023-12-22T02:03:54;9.90;99.90
23597;DHT22;40226;50.874;4.394;2023-12-22T02:06:20;9.90;99.90
23597;DHT22;40226;50.874;4.394;2023-12-22T02:08:49;9.80;99.90
23597;DHT22;40226;50.874;4.394;2023-12-22T02:11:16;9.80;99.90
23597;DHT22;40226;50.874;4.394;2023-12-22T02:13:43;9.70;99.90
23597;DHT22;40226;50.874;4.394;2023-12-22T02:19:15;9.80;99.90
23597;DHT22;40226;50.874;4.394;2023-12-22T02:22:03;10.00;99.90
23597;DHT22;40226;50.874;4.394;2023-12-22T02:24:29;9.90;99.90
23597;DHT22;40226;50.874;4.394;2023-12-22T02:27:14;9.80;99.90
23597;DHT22;40226;50.874;4.394;2023-12-22T02:29:46;9.80;99.90
23597;DHT22;40226;50.874;4.394;2023-12-22T02:32:21;9.80;99.90
23597;DHT22;40226;50.874;4.394;2023-12-22T02:34:50;9.80;99.90
23597;DHT22;40226;50.874;4.394;2023-12-22T02:37:17;9.80;99.90
23597;DHT22;40226;50.874;4.394;2023-12-22T02:39:43;9.90;81.30
23597;DHT22;40226;50.874;4.394;2023-12-22T02:42:10;9.90;67.10
23597;DHT22;40226;50.874;4.394;2023-12-22T02:44:35;10.00;46.60
23597;DHT22;40226;50.874;4.394;2023-12-22T02:47:01;10.00;11.30
23597;DHT22;40226;50.874;4.394;2023-12-22T02:49:27;10.20;4.60
23597;DHT22;40226;50.874;4.394;2023-12-22T02:51:52;10.10;1.00
23597;DHT22;40226;50.874;4.394;2023-12-22T02:54:18;10.10;1.00
23597;DHT22;40226;50.874;4.394;2023-12-22T02:56:46;10.10;1.00
23597;DHT22;40226;50.874;4.394;2023-12-22T02:59:12;10.20;1.00
23597;DHT22;40226;50.874;4.394;2023-12-22T03:01:37;10.00;1.00
23597;DHT22;40226;50.874;4.394;2023-12-22T03:04:03;10.10;1.00
23597;DHT22;40226;50.874;4.394;2023-12-22T03:06:29;10.10;1.00
23597;DHT22;40226;50.874;4.394;2023-12-22T03:08:54;10.10;1.00
23597;DHT22;40226;50.874;4.394;2023-12-22T03:11:20;10.00;1.00
23597;DHT22;40226;50.874;4.394;2023-12-22T03:13:45;9.90;1.00
23597;DHT22;40226;50.874;4.394;2023-12-22T03:16:11;9.90;1.00
23597;DHT22;40226;50.874;4.394;2023-12-22T03:18:39;10.10;1.00
23597;DHT22;40226;50.874;4.394;2023-12-22T03:21:05;10.00;5.90
23597;DHT22;40226;50.874;4.394;2023-12-22T03:23:31;9.90;32.80
23597;DHT22;40226;50.874;4.394;2023-12-22T03:25:56;9.80;66.40
23597;DHT22;40226;50.874;4.394;2023-12-22T03:28:22;9.80;96.00
23597;DHT22;40226;50.874;4.394;2023-12-22T03:30:47;9.90;97.90
23597;DHT22;40226;50.874;4.394;2023-12-22T03:33:13;9.90;99.90
23597;DHT22;40226;50.874;4.394;2023-12-22T03:35:39;9.80;99.90
23597;DHT22;40226;50.874;4.394;2023-12-22T03:38:04;9.70;99.90
23597;DHT22;40226;50.874;4.394;2023-12-22T03:40:30;9.80;99.90
23597;DHT22;40226;50.874;4.394;2023-12-22T03:42:56;9.70;99.90
23597;DHT22;40226;50.874;4.394;2023-12-22T03:45:21;9.70;99.90
23597;DHT22;40226;50.874;4.394;2023-12-22T03:47:47;9.70;99.90
23597;DHT22;40226;50.874;4.394;2023-12-22T03:50:13;9.70;99.90
23597;DHT22;40226;50.874;4.394;2023-12-22T03:52:38;9.60;99.90
23597;DHT22;40226;50.874;4.394;2023-12-22T03:55:04;9.60;99.90
23597;DHT22;40226;50.874;4.394;2023-12-22T03:57:30;9.50;99.90
23597;DHT22;40226;50.874;4.394;2023-12-22T03:59:55;9.60;99.90
23597;DHT22;40226;50.874;4.394;2023-12-22T04:02:21;9.50;99.90
23597;DHT22;40226;50.874;4.394;2023-12-22T04:04:47;9.30;99.90
23597;DHT22;40226;50.874;4.394;2023-12-22T04:07:13;9.30;99.90
23597;DHT22;40226;50.874;4.394;2023-12-22T04:09:38;9.20;99.90
23597;DHT22;40226;50.874;4.394;2023-12-22T04:12:04;9.20;99.90
23597;DHT22;40226;50.874;4.394;2023-12-22T04:14:30;9.10;99.90
23597;DHT22;40226;50.874;4.394;2023-12-22T04:16:56;9.10;99.90
23597;DHT22;40226;50.874;4.394;2023-12-22T04:19:22;9.00;99.90
23597;DHT22;40226;50.874;4.394;2023-12-22T04:21:48;8.90;99.90
23597;DHT22;40226;50.874;4.394;2023-12-22T04:24:14;8.80;99.90
23597;DHT22;40226;50.874;4.394;2023-12-22T04:26:39;8.70;99.90
23597;DHT22;40226;50.874;4.394;2023-12-22T04:29:05;8.60;99.90
23597;DHT22;40226;50.874;4.394;2023-12-22T04:31:31;8.70;99.90
23597;DHT22;40226;50.874;4.394;2023-12-22T04:33:56;8.80;99.90
23597;DHT22;40226;50.874;4.394;2023-12-22T04:36:22;8.70;99.90
23597;DHT22;40226;50.874;4.394;2023-12-22T04:38:47;8.70;99.90
23597;DHT22;40226;50.874;4.394;2023-12-22T04:41:13;8.70;99.90
23597;DHT22;40226;50.874;4.394;2023-12-22T04:43:38;8.70;99.90
23597;DHT22;40226;50.874;4.394;2023-12-22T04:46:04;8.70;99.90
23597;DHT22;40226;50.874;4.394;2023-12-22T04:48:30;8.70;99.90
23597;DHT22;40226;50.874;4.394;2023-12-22T04:50:55;8.60;99.90
23597;DHT22;40226;50.874;4.394;2023-12-22T04:53:21;8.70;99.90
23597;DHT22;40226;50.874;4.394;2023-12-22T04:55:46;8.80;99.90
23597;DHT22;40226;50.874;4.394;2023-12-22T04:58:12;8.60;99.90
23597;DHT22;40226;50.874;4.394;2023-12-22T05:00:37;8.70;99.90
23597;DHT22;40226;50.874;4.394;2023-12-22T05:03:03;8.70;99.90
23597;DHT22;40226;50.874;4.394;2023-12-22T05:05:29;8.50;99.90
23597;DHT22;40226;50.874;4.394;2023-12-22T05:07:55;8.60;99.90
23597;DHT22;40226;50.874;4.394;2023-12-22T05:10:20;8.70;99.90
23597;DHT22;40226;50.874;4.394;2023-12-22T05:12:46;8.80;99.90
23597;DHT22;40226;50.874;4.394;2023-12-22T05:15:11;8.90;99.90
23597;DHT22;40226;50.874;4.394;2023-12-22T05:17:37;8.80;99.90
23597;DHT22;40226;50.874;4.394;2023-12-22T05:20:03;8.90;99.90
23597;DHT22;40226;50.874;4.394;2023-12-22T05:22:29;8.80;99.90
23597;DHT22;40226;50.874;4.394;2023-12-22T05:24:58;8.90;99.90
23597;DHT22;40226;50.874;4.394;2023-12-22T05:27:24;9.10;99.90
23597;DHT22;40226;50.874;4.394;2023-12-22T05:29:50;9.20;99.90
23597;DHT22;40226;50.874;4.394;2023-12-22T05:32:16;9.30;99.90
23597;DHT22;40226;50.874;4.394;2023-12-22T05:34:41;9.40;99.90
23597;DHT22;40226;50.874;4.394;2023-12-22T05:37:07;9.30;99.90
23597;DHT22;40226;50.874;4.394;2023-12-22T05:39:32;9.30;99.90
23597;DHT22;40226;50.874;4.394;2023-12-22T05:41:58;9.40;99.90
23597;DHT22;40226;50.874;4.394;2023-12-22T05:44:24;9.40;99.90
23597;DHT22;40226;50.874;4.394;2023-12-22T05:46:49;9.60;99.90
23597;DHT22;40226;50.874;4.394;2023-12-22T05:49:16;9.50;99.90
23597;DHT22;40226;50.874;4.394;2023-12-22T05:51:41;9.60;99.90
23597;DHT22;40226;50.874;4.394;2023-12-22T05:54:08;9.60;99.90
23597;DHT22;40226;50.874;4.394;2023-12-22T05:56:33;9.60;99.90
23597;DHT22;40226;50.874;4.394;2023-12-22T05:58:59;9.50;99.90
23597;DHT22;40226;50.874;4.394;2023-12-22T06:01:25;9.60;99.90
23597;DHT22;40226;50.874;4.394;2023-12-22T06:03:51;9.60;99.90
23597;DHT22;40226;50.874;4.394;2023-12-22T06:06:16;9.70;99.90
23597;DHT22;40226;50.874;4.394;2023-12-22T06:08:42;9.60;99.90
23597;DHT22;40226;50.874;4.394;2023-12-22T06:11:07;9.60;99.90
23597;DHT22;40226;50.874;4.394;2023-12-22T06:13:33;9.50;99.90
23597;DHT22;40226;50.874;4.394;2023-12-22T06:15:59;9.60;99.90
23597;DHT22;40226;50.874;4.394;2023-12-22T06:18:24;9.60;99.90
23597;DHT22;40226;50.874;4.394;2023-12-22T06:20:50;9.70;99.90
23597;DHT22;40226;50.874;4.394;2023-12-22T06:23:16;9.60;99.90
23597;DHT22;40226;50.874;4.394;2023-12-22T06:25:42;9.70;99.90
23597;DHT22;40226;50.874;4.394;2023-12-22T06:28:08;9.60;99.90
23597;DHT22;40226;50.874;4.394;2023-12-22T06:30:33;9.50;99.90
23597;DHT22;40226;50.874;4.394;2023-12-22T06:32:59;9.60;99.90
23597;DHT22;40226;50.874;4.394;2023-12-22T06:35:24;9.70;99.90
23597;DHT22;40226;50.874;4.394;2023-12-22T06:37:51;9.80;99.90
23597;DHT22;40226;50.874;4.394;2023-12-22T06:40:21;9.90;99.90
23597;DHT22;40226;50.874;4.394;2023-12-22T06:42:46;9.90;99.90
23597;DHT22;40226;50.874;4.394;2023-12-22T06:45:12;9.90;99.90
23597;DHT22;40226;50.874;4.394;2023-12-22T06:47:38;9.80;99.90
23597;DHT22;40226;50.874;4.394;2023-12-22T06:50:06;9.70;99.90
23597;DHT22;40226;50.874;4.394;2023-12-22T06:52:33;9.50;99.90
23597;DHT22;40226;50.874;4.394;2023-12-22T06:54:59;9.40;99.90
23597;DHT22;40226;50.874;4.394;2023-12-22T06:57:24;9.30;99.90
23597;DHT22;40226;50.874;4.394;2023-12-22T06:59:50;9.30;99.90
23597;DHT22;40226;50.874;4.394;2023-12-22T07:02:15;9.30;99.90
23597;DHT22;40226;50.874;4.394;2023-12-22T07:07:29;9.50;99.90
23597;DHT22;40226;50.874;4.394;2023-12-22T07:09:55;9.50;99.90
23597;DHT22;40226;50.874;4.394;2023-12-22T07:12:20;9.50;99.90
23597;DHT22;40226;50.874;4.394;2023-12-22T07:14:46;9.50;99.90
23597;DHT22;40226;50.874;4.394;2023-12-22T07:17:12;9.50;99.90
23597;DHT22;40226;50.874;4.394;2023-12-22T07:19:37;9.40;99.90
23597;DHT22;40226;50.874;4.394;2023-12-22T07:22:03;9.40;99.90
23597;DHT22;40226;50.874;4.394;2023-12-22T07:24:29;9.50;99.90
23597;DHT22;40226;50.874;4.394;2023-12-22T07:26:55;9.60;99.90
23597;DHT22;40226;50.874;4.394;2023-12-22T07:29:21;9.70;99.90
23597;DHT22;40226;50.874;4.394;2023-12-22T07:31:46;9.70;99.90
23597;DHT22;40226;50.874;4.394;2023-12-22T07:34:12;9.60;99.90
23597;DHT22;40226;50.874;4.394;2023-12-22T07:36:37;9.70;99.90
23597;DHT22;40226;50.874;4.394;2023-12-22T07:39:03;9.60;99.90
23597;DHT22;40226;50.874;4.394;2023-12-22T07:41:29;9.70;99.90
23597;DHT22;40226;50.874;4.394;2023-12-22T07:43:54;9.60;99.90
23597;DHT22;40226;50.874;4.394;2023-12-22T07:46:20;9.70;99.90
23597;DHT22;40226;50.874;4.394;2023-12-22T07:48:47;9.70;99.90
23597;DHT22;40226;50.874;4.394;2023-12-22T07:51:13;9.70;99.90
23597;DHT22;40226;50.874;4.394;2023-12-22T07:53:38;9.70;99.90
23597;DHT22;40226;50.874;4.394;2023-12-22T07:56:04;9.70;99.90
23597;DHT22;40226;50.874;4.394;2023-12-22T07:58:31;9.70;99.90
23597;DHT22;40226;50.874;4.394;2023-12-22T08:00:58;9.70;99.90
23597;DHT22;40226;50.874;4.394;2023-12-22T08:03:24;9.70;99.90
23597;DHT22;40226;50.874;4.394;2023-12-22T08:05:49;9.70;99.90
23597;DHT22;40226;50.874;4.394;2023-12-22T08:08:15;9.80;99.90
23597;DHT22;40226;50.874;4.394;2023-12-22T08:10:41;9.80;99.90
23597;DHT22;40226;50.874;4.394;2023-12-22T08:13:06;10.00;99.90
23597;DHT22;40226;50.874;4.394;2023-12-22T08:15:32;10.10;99.90
23597;DHT22;40226;50.874;4.394;2023-12-22T08:17:58;9.80;99.90
23597;DHT22;40226;50.874;4.394;2023-12-22T08:20:23;9.70;99.90
23597;DHT22;40226;50.874;4.394;2023-12-22T08:22:50;9.70;99.90
23597;DHT22;40226;50.874;4.394;2023-12-22T08:25:16;9.80;99.90
23597;DHT22;40226;50.874;4.394;2023-12-22T08:27:48;9.80;99.90
23597;DHT22;40226;50.874;4.394;2023-12-22T08:30:14;9.70;99.90
23597;DHT22;40226;50.874;4.394;2023-12-22T08:32:42;9.70;99.90
23597;DHT22;40226;50.874;4.394;2023-12-22T08:35:08;9.60;99.90
23597;DHT22;40226;50.874;4.394;2023-12-22T08:37:34;9.70;99.90
23597;DHT22;40226;50.874;4.394;2023-12-22T08:39:59;9.70;99.90
23597;DHT22;40226;50.874;4.394;2023-12-22T08:42:25;9.80;99.90
23597;DHT22;40226;50.874;4.394;2023-12-22T08:44:51;9.70;99.90
23597;DHT22;40226;50.874;4.394;2023-12-22T08:47:17;9.60;99.90
23597;DHT22;40226;50.874;4.394;2023-12-22T08:49:43;9.60;99.90
23597;DHT22;40226;50.874;4.394;2023-12-22T08:52:08;9.70;99.90
23597;DHT22;40226;50.874;4.394;2023-12-22T08:54:34;9.70;99.90
23597;DHT22;40226;50.874;4.394;2023-12-22T08:57:03;9.80;99.90
23597;DHT22;40226;50.874;4.394;2023-12-22T08:59:29;9.80;99.90
23597;DHT22;40226;50.874;4.394;2023-12-22T09:01:55;9.80;99.90
23597;DHT22;40226;50.874;4.394;2023-12-22T09:04:21;9.90;99.90
23597;DHT22;40226;50.874;4.394;2023-12-22T09:06:49;10.00;99.90
23597;DHT22;40226;50.874;4.394;2023-12-22T09:09:14;10.00;99.90
23597;DHT22;40226;50.874;4.394;2023-12-22T09:11:41;10.10;99.90
23597;DHT22;40226;50.874;4.394;2023-12-22T09:14:07;10.00;99.90
23597;DHT22;40226;50.874;4.394;2023-12-22T09:16:36;10.00;99.90
23597;DHT22;40226;50.874;4.394;2023-12-22T09:19:03;10.00;99.90
23597;DHT22;40226;50.874;4.394;2023-12-22T09:21:28;10.10;99.90
23597;DHT22;40226;50.874;4.394;2023-12-22T09:23:55;10.00;99.90
23597;DHT22;40226;50.874;4.394;2023-12-22T09:26:20;9.90;99.90
23597;DHT22;40226;50.874;4.394;2023-12-22T09:28:46;10.00;99.90
23597;DHT22;40226;50.874;4.394;2023-12-22T09:31:12;10.10;99.90
23597;DHT22;40226;50.874;4.394;2023-12-22T09:33:41;10.20;99.90
23597;DHT22;40226;50.874;4.394;2023-12-22T09:36:08;10.10;99.90
23597;DHT22;40226;50.874;4.394;2023-12-22T09:38:33;10.00;99.90
23597;DHT22;40226;50.874;4.394;2023-12-22T09:41:00;10.10;99.90
23597;DHT22;40226;50.874;4.394;2023-12-22T09:43:26;10.20;99.90
23597;DHT22;40226;50.874;4.394;2023-12-22T09:45:53;10.20;99.90
23597;DHT22;40226;50.874;4.394;2023-12-22T09:48:20;10.20;99.90
23597;DHT22;40226;50.874;4.394;2023-12-22T09:50:52;10.30;99.90
23597;DHT22;40226;50.874;4.394;2023-12-22T09:53:19;10.30;99.90
23597;DHT22;40226;50.874;4.394;2023-12-22T09:55:47;10.40;99.90
23597;DHT22;40226;50.874;4.394;2023-12-22T09:58:14;10.50;99.90
23597;DHT22;40226;50.874;4.394;2023-12-22T10:00:41;10.50;99.90
23597;DHT22;40226;50.874;4.394;2023-12-22T10:03:07;10.40;99.90
23597;DHT22;40226;50.874;4.394;2023-12-22T10:05:34;10.50;99.90
23597;DHT22;40226;50.874;4.394;2023-12-22T10:08:00;10.50;99.90
23597;DHT22;40226;50.874;4.394;2023-12-22T10:10:30;10.50;99.90
23597;DHT22;40226;50.874;4.394;2023-12-22T10:12:56;10.60;99.90
23597;DHT22;40226;50.874;4.394;2023-12-22T10:15:23;10.60;99.90
23597;DHT22;40226;50.874;4.394;2023-12-22T10:17:53;10.70;99.90
23597;DHT22;40226;50.874;4.394;2023-12-22T10:20:19;10.60;99.90
23597;DHT22;40226;50.874;4.394;2023-12-22T10:22:44;10.70;99.90
23597;DHT22;40226;50.874;4.394;2023-12-22T10:25:10;10.70;99.90
23597;DHT22;40226;50.874;4.394;2023-12-22T10:27:36;10.70;99.90
23597;DHT22;40226;50.874;4.394;2023-12-22T10:30:03;10.80;99.90
23597;DHT22;40226;50.874;4.394;2023-12-22T10:32:29;10.80;99.90
23597;DHT22;40226;50.874;4.394;2023-12-22T10:34:56;10.80;99.90
23597;DHT22;40226;50.874;4.394;2023-12-22T10:37:25;10.90;99.90
23597;DHT22;40226;50.874;4.394;2023-12-22T10:39:54;10.80;99.90
23597;DHT22;40226;50.874;4.394;2023-12-22T10:42:20;10.80;99.90
23597;DHT22;40226;50.874;4.394;2023-12-22T10:44:46;10.70;99.90
23597;DHT22;40226;50.874;4.394;2023-12-22T10:47:12;10.80;99.90
23597;DHT22;40226;50.874;4.394;2023-12-22T10:49:41;10.60;99.90
23597;DHT22;40226;50.874;4.394;2023-12-22T10:52:11;10.50;99.90
23597;DHT22;40226;50.874;4.394;2023-12-22T10:54:41;10.50;99.90
23597;DHT22;40226;50.874;4.394;2023-12-22T10:57:06;10.50;99.90
23597;DHT22;40226;50.874;4.394;2023-12-22T10:59:34;10.60;99.90
23597;DHT22;40226;50.874;4.394;2023-12-22T11:02:02;10.50;99.90
23597;DHT22;40226;50.874;4.394;2023-12-22T11:04:30;10.60;99.90
23597;DHT22;40226;50.874;4.394;2023-12-22T11:07:03;10.60;99.90
23597;DHT22;40226;50.874;4.394;2023-12-22T11:09:31;10.50;99.90
23597;DHT22;40226;50.874;4.394;2023-12-22T11:11:58;10.50;99.90
23597;DHT22;40226;50.874;4.394;2023-12-22T11:14:26;10.50;99.90
23597;DHT22;40226;50.874;4.394;2023-12-22T11:16:54;10.50;99.90
23597;DHT22;40226;50.874;4.394;2023-12-22T11:19:20;10.40;99.90
23597;DHT22;40226;50.874;4.394;2023-12-22T11:21:49;10.30;99.90
23597;DHT22;40226;50.874;4.394;2023-12-22T11:24:16;10.40;99.90
23597;DHT22;40226;50.874;4.394;2023-12-22T11:26:42;10.40;99.90
23597;DHT22;40226;50.874;4.394;2023-12-22T11:29:09;10.50;99.90
23597;DHT22;40226;50.874;4.394;2023-12-22T11:31:36;10.50;99.90
23597;DHT22;40226;50.874;4.394;2023-12-22T11:34:05;10.50;99.90
23597;DHT22;40226;50.874;4.394;2023-12-22T11:36:31;10.50;99.90
23597;DHT22;40226;50.874;4.394;2023-12-22T11:38:59;10.50;99.90
23597;DHT22;40226;50.874;4.394;2023-12-22T11:41:28;10.70;99.90
23597;DHT22;40226;50.874;4.394;2023-12-22T11:43:54;10.70;99.90
23597;DHT22;40226;50.874;4.394;2023-12-22T11:46:21;10.80;99.90
23597;DHT22;40226;50.874;4.394;2023-12-22T11:48:49;10.70;99.90
23597;DHT22;40226;50.874;4.394;2023-12-22T11:51:17;10.70;99.90
23597;DHT22;40226;50.874;4.394;2023-12-22T11:53:42;10.70;99.90
23597;DHT22;40226;50.874;4.394;2023-12-22T11:56:09;10.70;99.90
23597;DHT22;40226;50.874;4.394;2023-12-22T11:58:44;10.80;99.90
23597;DHT22;40226;50.874;4.394;2023-12-22T12:01:18;10.70;99.90
23597;DHT22;40226;50.874;4.394;2023-12-22T12:04:03;10.70;99.90
23597;DHT22;40226;50.874;4.394;2023-12-22T12:09:00;10.80;99.90
23597;DHT22;40226;50.874;4.394;2023-12-22T12:14:26;10.80;99.90
23597;DHT22;40226;50.874;4.394;2023-12-22T12:17:07;10.80;99.90
23597;DHT22;40226;50.874;4.394;2023-12-22T12:19:42;10.80;99.90
23597;DHT22;40226;50.874;4.394;2023-12-22T12:22:09;10.80;99.90
23597;DHT22;40226;50.874;4.394;2023-12-22T12:24:37;10.90;99.90
23597;DHT22;40226;50.874;4.394;2023-12-22T12:27:03;11.00;99.90
23597;DHT22;40226;50.874;4.394;2023-12-22T12:29:32;11.10;99.90
23597;DHT22;40226;50.874;4.394;2023-12-22T12:32:05;11.10;99.90
23597;DHT22;40226;50.874;4.394;2023-12-22T12:34:33;11.10;99.90
23597;DHT22;40226;50.874;4.394;2023-12-22T12:37:00;11.00;99.90
23597;DHT22;40226;50.874;4.394;2023-12-22T12:39:30;11.00;99.90
23597;DHT22;40226;50.874;4.394;2023-12-22T12:41:59;11.10;99.90
23597;DHT22;40226;50.874;4.394;2023-12-22T12:44:25;11.20;99.90
23597;DHT22;40226;50.874;4.394;2023-12-22T12:46:52;11.20;99.90
23597;DHT22;40226;50.874;4.394;2023-12-22T12:49:18;11.00;99.90
23597;DHT22;40226;50.874;4.394;2023-12-22T12:51:46;11.20;99.90
23597;DHT22;40226;50.874;4.394;2023-12-22T12:54:12;11.20;99.90
23597;DHT22;40226;50.874;4.394;2023-12-22T12:56:43;11.10;99.90
23597;DHT22;40226;50.874;4.394;2023-12-22T12:59:10;11.00;99.90
23597;DHT22;40226;50.874;4.394;2023-12-22T13:01:43;11.10;99.90
23597;DHT22;40226;50.874;4.394;2023-12-22T13:04:09;11.20;99.90
23597;DHT22;40226;50.874;4.394;2023-12-22T13:06:42;11.20;99.90
23597;DHT22;40226;50.874;4.394;2023-12-22T13:09:08;11.10;99.90
23597;DHT22;40226;50.874;4.394;2023-12-22T13:11:35;11.20;99.90
23597;DHT22;40226;50.874;4.394;2023-12-22T13:14:01;11.30;99.90
23597;DHT22;40226;50.874;4.394;2023-12-22T13:16:27;11.20;99.90
23597;DHT22;40226;50.874;4.394;2023-12-22T13:18:56;11.20;99.90
23597;DHT22;40226;50.874;4.394;2023-12-22T13:21:26;11.30;99.90
23597;DHT22;40226;50.874;4.394;2023-12-22T13:24:15;11.40;99.90
23597;DHT22;40226;50.874;4.394;2023-12-22T13:26:41;11.20;99.90
23597;DHT22;40226;50.874;4.394;2023-12-22T13:29:08;11.10;99.90
23597;DHT22;40226;50.874;4.394;2023-12-22T13:31:37;11.20;99.90
23597;DHT22;40226;50.874;4.394;2023-12-22T13:34:03;11.10;99.90
23597;DHT22;40226;50.874;4.394;2023-12-22T13:36:34;11.20;99.90
23597;DHT22;40226;50.874;4.394;2023-12-22T13:39:00;11.20;99.90
23597;DHT22;40226;50.874;4.394;2023-12-22T13:41:26;11.20;99.90
23597;DHT22;40226;50.874;4.394;2023-12-22T13:43:51;11.30;99.90
23597;DHT22;40226;50.874;4.394;2023-12-22T13:46:18;11.30;99.90
23597;DHT22;40226;50.874;4.394;2023-12-22T13:48:44;11.30;99.90
23597;DHT22;40226;50.874;4.394;2023-12-22T13:51:10;11.20;99.90
23597;DHT22;40226;50.874;4.394;2023-12-22T13:53:47;11.20;99.90
23597;DHT22;40226;50.874;4.394;2023-12-22T13:56:13;11.20;99.90
23597;DHT22;40226;50.874;4.394;2023-12-22T13:58:46;11.10;99.90
23597;DHT22;40226;50.874;4.394;2023-12-22T14:01:16;11.10;99.90
23597;DHT22;40226;50.874;4.394;2023-12-22T14:03:44;11.10;99.90
23597;DHT22;40226;50.874;4.394;2023-12-22T14:06:11;11.20;99.90
23597;DHT22;40226;50.874;4.394;2023-12-22T14:08:39;11.20;99.90
23597;DHT22;40226;50.874;4.394;2023-12-22T14:11:06;11.20;99.90
23597;DHT22;40226;50.874;4.394;2023-12-22T14:13:32;11.20;99.90
23597;DHT22;40226;50.874;4.394;2023-12-22T14:15:58;11.20;99.90
23597;DHT22;40226;50.874;4.394;2023-12-22T14:18:23;11.20;99.90
23597;DHT22;40226;50.874;4.394;2023-12-22T14:20:49;11.30;99.90
23597;DHT22;40226;50.874;4.394;2023-12-22T14:23:15;11.40;99.90
23597;DHT22;40226;50.874;4.394;2023-12-22T14:25:43;11.40;99.90
23597;DHT22;40226;50.874;4.394;2023-12-22T14:28:09;11.30;99.90
23597;DHT22;40226;50.874;4.394;2023-12-22T14:30:34;11.30;99.90
23597;DHT22;40226;50.874;4.394;2023-12-22T14:33:00;11.30;99.90
23597;DHT22;40226;50.874;4.394;2023-12-22T14:35:26;11.40;99.90
23597;DHT22;40226;50.874;4.394;2023-12-22T14:37:51;11.40;99.90
23597;DHT22;40226;50.874;4.394;2023-12-22T14:40:17;11.50;99.90
23597;DHT22;40226;50.874;4.394;2023-12-22T14:42:43;11.40;99.90
23597;DHT22;40226;50.874;4.394;2023-12-22T14:45:08;11.40;99.90
23597;DHT22;40226;50.874;4.394;2023-12-22T14:47:34;11.40;99.90
23597;DHT22;40226;50.874;4.394;2023-12-22T14:50:01;11.40;99.90
23597;DHT22;40226;50.874;4.394;2023-12-22T14:52:30;11.50;99.90
23597;DHT22;40226;50.874;4.394;2023-12-22T14:55:00;11.50;99.90
23597;DHT22;40226;50.874;4.394;2023-12-22T14:57:26;11.60;99.90
23597;DHT22;40226;50.874;4.394;2023-12-22T14:59:54;11.70;99.90
23597;DHT22;40226;50.874;4.394;2023-12-22T15:02:20;11.60;99.90
23597;DHT22;40226;50.874;4.394;2023-12-22T15:04:45;11.60;99.90
23597;DHT22;40226;50.874;4.394;2023-12-22T15:07:15;11.60;99.90
23597;DHT22;40226;50.874;4.394;2023-12-22T15:09:41;11.60;99.90
23597;DHT22;40226;50.874;4.394;2023-12-22T15:12:07;11.60;99.90
23597;DHT22;40226;50.874;4.394;2023-12-22T15:14:33;11.60;99.90
23597;DHT22;40226;50.874;4.394;2023-12-22T15:16:58;11.60;99.90
23597;DHT22;40226;50.874;4.394;2023-12-22T15:19:24;11.60;99.90
23597;DHT22;40226;50.874;4.394;2023-12-22T15:21:51;11.80;99.90
23597;DHT22;40226;50.874;4.394;2023-12-22T15:24:16;11.80;99.90
23597;DHT22;40226;50.874;4.394;2023-12-22T15:26:42;11.70;99.90
23597;DHT22;40226;50.874;4.394;2023-12-22T15:29:09;11.70;99.90
23597;DHT22;40226;50.874;4.394;2023-12-22T15:31:34;11.70;99.90
23597;DHT22;40226;50.874;4.394;2023-12-22T15:34:00;11.70;99.90
23597;DHT22;40226;50.874;4.394;2023-12-22T15:36:26;11.70;99.90
23597;DHT22;40226;50.874;4.394;2023-12-22T15:38:53;11.80;99.90
23597;DHT22;40226;50.874;4.394;2023-12-22T15:41:19;11.80;99.90
23597;DHT22;40226;50.874;4.394;2023-12-22T15:43:44;11.80;99.90
23597;DHT22;40226;50.874;4.394;2023-12-22T15:46:10;11.80;99.90